createdAt,value
2023-07-24T00:01:07.860Z,100094.50
2023-07-24T00:03:34.511Z,100102.44
2023-07-24T00:06:01.198Z,100098.16
2023-07-24T00:08:27.790Z,100096.72
2023-07-24T00:10:54.974Z,100093.25
2023-07-24T00:13:21.488Z,100091.00
2023-07-24T00:15:48.090Z,100085.06
2023-07-24T00:18:14.642Z,100084.59
2023-07-24T00:20:41.265Z,100092.13
2023-07-24T00:23:07.925Z,100087.13
2023-07-24T00:25:34.482Z,100091.13
2023-07-24T00:28:01.008Z,100077.50
2023-07-24T00:30:27.553Z,100082.13
2023-07-24T00:32:54.200Z,100073.75
2023-07-24T00:35:20.953Z,100078.63
2023-07-24T00:37:47.523Z,100074.50
2023-07-24T00:40:14.093Z,100078.31
2023-07-24T00:42:40.690Z,100073.41
2023-07-24T00:45:07.779Z,100075.22
2023-07-24T00:47:34.486Z,100075.38
2023-07-24T00:50:01.083Z,100070.09
2023-07-24T00:52:27.628Z,100061.72
2023-07-24T00:54:54.678Z,100057.44
2023-07-24T00:57:21.405Z,100055.63
2023-07-24T00:59:48.034Z,100047.69
2023-07-24T01:02:14.629Z,100052.53
2023-07-24T01:04:41.403Z,100034.88
2023-07-24T01:07:07.934Z,100036.50
2023-07-24T01:09:34.519Z,100033.03
2023-07-24T01:12:36.338Z,100012.91
2023-07-24T01:15:16.664Z,100021.00
2023-07-24T01:17:49.165Z,100017.56
2023-07-24T01:20:18.633Z,100013.47
2023-07-24T01:23:05.603Z,100005.91
2023-07-24T01:25:37.006Z,100007.09
2023-07-24T01:28:10.652Z,99998.72
2023-07-24T01:30:37.307Z,100003.38
2023-07-24T01:33:04.101Z,99988.72
2023-07-24T01:35:32.322Z,99984.78
2023-07-24T01:38:00.878Z,99986.00
2023-07-24T01:40:27.419Z,99980.88
2023-07-24T01:42:54.127Z,99981.81
2023-07-24T01:45:20.674Z,99974.47
2023-07-24T01:47:47.373Z,99972.00
2023-07-24T01:50:14.023Z,99969.53
2023-07-24T01:52:40.541Z,99983.72
2023-07-24T01:55:07.454Z,99982.72
2023-07-24T01:57:33.955Z,99962.59
2023-07-24T02:00:00.471Z,99961.78
2023-07-24T02:02:27.015Z,99943.66
2023-07-24T02:04:53.594Z,99947.75
2023-07-24T02:07:20.178Z,99961.59
2023-07-24T02:09:46.741Z,99950.03
2023-07-24T02:12:13.244Z,99944.56
2023-07-24T02:14:39.799Z,99951.31
2023-07-24T02:17:06.428Z,99946.47
2023-07-24T02:19:32.977Z,99943.28
2023-07-24T02:21:59.547Z,99937.44
2023-07-24T02:24:26.093Z,99920.63
2023-07-24T02:26:52.703Z,99903.03
2023-07-24T02:29:20.029Z,99923.88
2023-07-24T02:31:46.546Z,99934.50
2023-07-24T02:34:13.089Z,99930.28
2023-07-24T02:36:40.150Z,99931.91
2023-07-24T02:39:06.674Z,99941.66
2023-07-24T02:41:33.264Z,99944.69
2023-07-24T02:43:59.772Z,99941.22
2023-07-24T02:46:26.401Z,99932.47
2023-07-24T02:48:53.655Z,99929.84
2023-07-24T02:51:20.262Z,99927.81
2023-07-24T02:53:46.839Z,99924.38
2023-07-24T02:56:13.361Z,99934.28
2023-07-24T02:58:39.954Z,99923.53
2023-07-24T03:01:08.274Z,99925.00
2023-07-24T03:03:35.936Z,99918.44
2023-07-24T03:06:02.886Z,99916.63
2023-07-24T03:08:29.418Z,99917.22
2023-07-24T03:10:55.909Z,99911.94
2023-07-24T03:13:22.438Z,99911.78
2023-07-24T03:15:57.179Z,99913.59
2023-07-24T03:18:24.103Z,99917.84
2023-07-24T03:20:50.622Z,99914.81
2023-07-24T03:23:17.270Z,99920.72
2023-07-24T03:25:43.880Z,99920.88
2023-07-24T03:28:10.932Z,99923.72
2023-07-24T03:30:37.439Z,99922.28
2023-07-24T03:33:04.225Z,99905.41
2023-07-24T03:35:30.791Z,99913.34
2023-07-24T03:37:57.299Z,99905.59
2023-07-24T03:40:23.880Z,99915.50
2023-07-24T03:42:50.461Z,99910.13
2023-07-24T03:45:17.104Z,99903.22
2023-07-24T03:47:44.273Z,99907.69
2023-07-24T03:50:10.941Z,99895.50
2023-07-24T03:52:37.410Z,99887.56
2023-07-24T03:55:04.793Z,99888.53
2023-07-24T03:57:31.379Z,99891.84
2023-07-24T03:59:57.968Z,99896.28
2023-07-24T04:02:24.921Z,99894.47
2023-07-24T04:04:51.556Z,99888.97
2023-07-24T04:07:18.108Z,99891.44
2023-07-24T04:09:44.609Z,99886.78
2023-07-24T04:12:11.126Z,99884.78
2023-07-24T04:14:37.617Z,99881.94
2023-07-24T04:17:04.440Z,99890.69
2023-07-24T04:19:31.446Z,99895.97
2023-07-24T04:21:57.930Z,99889.69
2023-07-24T04:24:24.473Z,99896.03
2023-07-24T04:26:50.957Z,99885.84
2023-07-24T04:29:17.519Z,99888.28
2023-07-24T04:31:44.164Z,99888.28
2023-07-24T04:34:10.775Z,99888.69
2023-07-24T04:36:37.350Z,99881.81
2023-07-24T04:39:03.985Z,99889.56
2023-07-24T04:41:30.516Z,99875.72
2023-07-24T04:43:57.013Z,99889.75
2023-07-24T04:46:23.632Z,99901.50
2023-07-24T04:48:50.184Z,99907.81
2023-07-24T04:51:16.698Z,99907.00
2023-07-24T04:53:43.202Z,99908.41
2023-07-24T04:56:09.717Z,99904.16
2023-07-24T04:58:36.217Z,99908.63
2023-07-24T05:01:06.152Z,99910.25
2023-07-24T05:03:33.566Z,99898.81
2023-07-24T05:06:00.171Z,99900.66
2023-07-24T05:08:26.733Z,99894.34
2023-07-24T05:10:59.963Z,99898.81
2023-07-24T05:13:27.498Z,99904.72
2023-07-24T05:15:54.064Z,99908.00
2023-07-24T05:18:20.861Z,99912.72
2023-07-24T05:20:48.563Z,99920.50
2023-07-24T05:23:15.785Z,99919.16
2023-07-24T05:25:42.442Z,99929.34
2023-07-24T05:28:09.130Z,99925.38
2023-07-24T05:30:35.807Z,99921.16
2023-07-24T05:33:02.371Z,99919.56
2023-07-24T05:35:28.949Z,99925.50
2023-07-24T05:37:55.450Z,99930.66
2023-07-24T05:40:21.946Z,99925.16
2023-07-24T05:42:48.975Z,99923.56
2023-07-24T05:45:18.696Z,99909.13
2023-07-24T05:47:45.273Z,99924.19
2023-07-24T05:50:14.415Z,99929.06
2023-07-24T05:52:41.607Z,99920.72
2023-07-24T05:55:08.823Z,99925.00
2023-07-24T05:57:35.353Z,99929.09
2023-07-24T06:00:02.129Z,99932.19
2023-07-24T06:02:28.612Z,99920.19
2023-07-24T06:04:55.159Z,99914.09
2023-07-24T06:07:21.719Z,99907.19
2023-07-24T06:09:48.243Z,99911.72
2023-07-24T06:12:14.962Z,99918.25
2023-07-24T06:14:41.514Z,99918.69
2023-07-24T06:17:08.267Z,99920.00
2023-07-24T06:19:35.453Z,99906.50
2023-07-24T06:22:02.056Z,99917.94
2023-07-24T06:24:28.703Z,99917.75
2023-07-24T06:26:55.402Z,99915.53
2023-07-24T06:29:23.600Z,99915.78
2023-07-24T06:31:50.946Z,99915.00
2023-07-24T06:34:17.612Z,99918.50
2023-07-24T06:36:44.249Z,99935.94
2023-07-24T06:39:10.823Z,99928.75
2023-07-24T06:41:37.365Z,99939.59
2023-07-24T06:44:04.081Z,99928.81
2023-07-24T06:46:31.056Z,99945.31
2023-07-24T06:48:57.958Z,99939.19
2023-07-24T06:51:24.483Z,99930.03
2023-07-24T06:53:51.060Z,99911.50
2023-07-24T06:56:17.610Z,99917.22
2023-07-24T06:58:44.178Z,99919.88
2023-07-24T07:01:10.723Z,99915.19
2023-07-24T07:03:37.395Z,99918.88
2023-07-24T07:06:04.481Z,99926.19
2023-07-24T07:08:31.423Z,99925.34
2023-07-24T07:11:01.708Z,99927.03
2023-07-24T07:13:28.606Z,99917.63
2023-07-24T07:15:55.168Z,99913.19
2023-07-24T07:18:21.824Z,99910.91
2023-07-24T07:20:54.197Z,99918.91
2023-07-24T07:23:21.721Z,99929.28
2023-07-24T07:25:48.411Z,99936.47
2023-07-24T07:28:15.922Z,99929.53
2023-07-24T07:30:44.960Z,99927.47
2023-07-24T07:33:12.577Z,99922.19
2023-07-24T07:35:39.109Z,99941.50
2023-07-24T07:38:05.704Z,99926.84
2023-07-24T07:40:32.211Z,99922.38
2023-07-24T07:42:58.772Z,99922.44
2023-07-24T07:45:25.589Z,99925.06
2023-07-24T07:47:54.390Z,99918.41
2023-07-24T07:50:21.273Z,99905.75
2023-07-24T07:52:51.046Z,99901.66
2023-07-24T07:55:17.778Z,99906.75
2023-07-24T07:57:44.331Z,99903.28
2023-07-24T08:00:11.528Z,99900.25
2023-07-24T08:02:41.291Z,99892.47
2023-07-24T08:05:20.880Z,99894.56
2023-07-24T08:07:48.325Z,99918.00
2023-07-24T08:10:16.845Z,99919.63
2023-07-24T08:12:44.445Z,99912.44
2023-07-24T08:15:11.814Z,99912.25
2023-07-24T08:17:38.518Z,99908.44
2023-07-24T08:20:05.733Z,99910.09
2023-07-24T08:22:32.239Z,99897.84
2023-07-24T08:24:58.822Z,99887.91
2023-07-24T08:27:25.376Z,99889.97
2023-07-24T08:29:53.723Z,99895.63
2023-07-24T08:32:20.910Z,99898.53
2023-07-24T08:34:47.440Z,99895.63
2023-07-24T08:37:14.051Z,99898.66
2023-07-24T08:39:40.821Z,99901.09
2023-07-24T08:42:14.629Z,99888.88
2023-07-24T08:44:41.312Z,99887.63
2023-07-24T08:47:11.444Z,99888.06
2023-07-24T08:49:40.083Z,99886.19
2023-07-24T08:52:07.432Z,99898.19
2023-07-24T08:54:36.623Z,99881.09
2023-07-24T08:57:03.593Z,99881.91
2023-07-24T08:59:30.921Z,99885.81
2023-07-24T09:01:57.446Z,99890.06
2023-07-24T09:04:25.728Z,99897.81
2023-07-24T09:06:52.698Z,99889.88
2023-07-24T09:09:19.258Z,99899.03
2023-07-24T09:11:48.811Z,99901.06
2023-07-24T09:14:28.173Z,99894.16
2023-07-24T09:17:10.805Z,99884.38
2023-07-24T09:19:38.371Z,99883.78
2023-07-24T09:22:16.200Z,99885.00
2023-07-24T09:27:27.748Z,99858.69
2023-07-24T09:29:55.588Z,99872.00
2023-07-24T09:32:23.422Z,99863.22
2023-07-24T09:34:55.381Z,99852.41
2023-07-24T09:37:28.878Z,99867.88
2023-07-24T09:39:55.479Z,99845.03
2023-07-24T09:42:44.784Z,99850.06
2023-07-24T09:45:23.388Z,99837.00
2023-07-24T09:47:56.738Z,99838.66
2023-07-24T09:50:27.245Z,99832.56
2023-07-24T09:52:55.881Z,99829.47
2023-07-24T09:55:36.020Z,99819.22
2023-07-24T09:58:02.702Z,99826.31
2023-07-24T10:00:30.216Z,99817.47
2023-07-24T10:02:57.209Z,99816.88
2023-07-24T10:05:24.235Z,99811.56
2023-07-24T10:07:51.931Z,99808.53
2023-07-24T10:10:18.889Z,99797.19
2023-07-24T10:12:45.958Z,99796.34
2023-07-24T10:15:12.797Z,99805.34
2023-07-24T10:17:41.716Z,99802.56
2023-07-24T10:20:13.249Z,99800.09
2023-07-24T10:22:44.073Z,99802.03
2023-07-24T10:25:11.945Z,99806.41
2023-07-24T10:27:48.378Z,99807.56
2023-07-24T10:30:33.789Z,99802.84
2023-07-24T10:33:12.379Z,99792.53
2023-07-24T10:35:39.977Z,99794.28
2023-07-24T10:38:06.575Z,99777.59
2023-07-24T10:40:34.638Z,99788.31
2023-07-24T10:43:09.259Z,99783.97
2023-07-24T10:46:02.295Z,99780.34
2023-07-24T10:48:28.948Z,99771.47
2023-07-24T10:50:55.646Z,99775.69
2023-07-24T10:53:24.305Z,99750.03
2023-07-24T10:55:52.579Z,99743.91
2023-07-24T10:58:19.380Z,99735.56
2023-07-24T11:00:48.417Z,99710.38
2023-07-24T11:03:16.170Z,99733.69
2023-07-24T11:05:47.578Z,99739.00
2023-07-24T11:08:16.489Z,99741.03
2023-07-24T11:10:54.318Z,99720.00
2023-07-24T11:13:23.672Z,99726.06
2023-07-24T11:15:51.126Z,99745.09
2023-07-24T11:18:17.896Z,99769.50
2023-07-24T11:20:47.349Z,99789.34
2023-07-24T11:23:14.264Z,99788.81
2023-07-24T11:25:41.560Z,99815.03
2023-07-24T11:28:09.910Z,99851.59
2023-07-24T11:30:36.917Z,99871.59
2023-07-24T11:33:06.428Z,99866.06
2023-07-24T11:35:33.721Z,99863.19
2023-07-24T11:38:00.640Z,99878.25
2023-07-24T11:40:39.159Z,99865.56
2023-07-24T11:43:06.139Z,99858.59
2023-07-24T11:45:42.078Z,99837.97
2023-07-24T11:48:12.833Z,99829.56
2023-07-24T11:50:47.652Z,99834.66
2023-07-24T11:53:28.742Z,99856.22
2023-07-24T11:55:57.844Z,99863.59
2023-07-24T11:58:27.428Z,99845.44
2023-07-24T12:00:54.393Z,99846.38
2023-07-24T12:03:22.969Z,99850.31
2023-07-24T12:05:50.915Z,99866.28
2023-07-24T12:08:21.488Z,99847.81
2023-07-24T12:10:49.728Z,99828.78
2023-07-24T12:13:18.230Z,99804.72
2023-07-24T12:15:45.915Z,99809.56
2023-07-24T12:18:12.460Z,99807.41
2023-07-24T12:20:39.464Z,99791.44
2023-07-24T12:23:06.046Z,99827.03
2023-07-24T12:25:33.080Z,99816.31
2023-07-24T12:28:00.039Z,99791.16
2023-07-24T12:30:26.723Z,99784.69
2023-07-24T12:32:53.287Z,99792.84
2023-07-24T12:35:19.950Z,99790.78
2023-07-24T12:37:46.979Z,99782.34
2023-07-24T12:40:14.241Z,99778.38
2023-07-24T12:42:40.837Z,99769.06
2023-07-24T12:45:07.868Z,99764.59
2023-07-24T12:47:34.667Z,99760.50
2023-07-24T12:50:01.796Z,99758.22
2023-07-24T12:52:30.516Z,99745.69
2023-07-24T12:55:02.283Z,99742.00
2023-07-24T12:57:29.890Z,99745.47
2023-07-24T12:59:56.528Z,99759.28
2023-07-24T13:02:23.150Z,99756.03
2023-07-24T13:04:49.786Z,99757.75
2023-07-24T13:07:16.506Z,99774.66
2023-07-24T13:09:43.174Z,99783.84
2023-07-24T13:12:10.268Z,99795.66
2023-07-24T13:14:38.490Z,99785.81
2023-07-24T13:17:07.026Z,99780.38
2023-07-24T13:19:33.732Z,99787.84
2023-07-24T13:22:00.376Z,99780.00
2023-07-24T13:24:27.162Z,99785.00
2023-07-24T13:26:53.739Z,99783.59
2023-07-24T13:29:20.615Z,99784.81
2023-07-24T13:31:47.948Z,99787.31
2023-07-24T13:34:14.493Z,99785.09
2023-07-24T13:36:41.081Z,99777.63
2023-07-24T13:39:07.685Z,99787.03
2023-07-24T13:41:34.488Z,99785.47
2023-07-24T13:44:01.484Z,99784.44
2023-07-24T13:46:28.141Z,99779.22
2023-07-24T13:48:54.727Z,99789.25
2023-07-24T13:51:21.281Z,99775.81
2023-07-24T13:53:49.584Z,99778.72
2023-07-24T13:56:16.297Z,99769.09
2023-07-24T13:58:42.867Z,99766.06
2023-07-24T14:01:09.652Z,99757.72
2023-07-24T14:03:36.377Z,99744.34
2023-07-24T14:06:03.621Z,99750.91
2023-07-24T14:08:30.153Z,99752.78
2023-07-24T14:10:56.971Z,99752.31
2023-07-24T14:13:23.615Z,99754.72
2023-07-24T14:15:50.332Z,99758.97
2023-07-24T14:18:17.029Z,99753.38
2023-07-24T14:20:43.668Z,99741.53
2023-07-24T14:25:54.296Z,99749.88
2023-07-24T14:28:20.898Z,99743.91
2023-07-24T14:30:48.241Z,99756.09
2023-07-24T14:33:14.892Z,99762.66
2023-07-24T14:35:41.414Z,99781.94
2023-07-24T14:38:07.948Z,99767.13
2023-07-24T14:40:34.571Z,99776.78
2023-07-24T14:43:01.136Z,99774.53
2023-07-24T14:45:28.063Z,99781.44
2023-07-24T14:47:54.730Z,99777.78
2023-07-24T14:50:21.322Z,99781.84
2023-07-24T14:52:47.935Z,99777.31
2023-07-24T14:55:15.665Z,99781.66
2023-07-24T14:57:42.277Z,99783.91
2023-07-24T15:00:09.715Z,99789.13
2023-07-24T15:02:36.427Z,99769.38
2023-07-24T15:05:03.256Z,99769.31
2023-07-24T15:07:30.474Z,99774.44
2023-07-24T15:09:57.463Z,99757.66
2023-07-24T15:12:24.174Z,99788.66
2023-07-24T15:14:50.754Z,99773.78
2023-07-24T15:17:19.372Z,99781.78
2023-07-24T15:19:46.198Z,99775.88
2023-07-24T15:22:12.791Z,99782.75
2023-07-24T15:24:41.093Z,99791.44
2023-07-24T15:27:09.203Z,99789.72
2023-07-24T15:29:39.025Z,99795.78
2023-07-24T15:32:06.500Z,99794.59
2023-07-24T15:34:33.214Z,99788.72
2023-07-24T15:37:00.130Z,99808.22
2023-07-24T15:39:26.732Z,99812.34
2023-07-24T15:41:53.332Z,99798.06
2023-07-24T15:44:19.887Z,99795.63
2023-07-24T15:46:48.034Z,99809.25
2023-07-24T15:49:15.456Z,99799.03
2023-07-24T15:51:42.001Z,99809.75
2023-07-24T15:54:11.266Z,99803.56
2023-07-24T15:56:39.999Z,99812.88
2023-07-24T15:59:06.778Z,99807.09
2023-07-24T16:01:33.837Z,99819.16
2023-07-24T16:04:00.819Z,99820.75
2023-07-24T16:06:27.492Z,99819.13
2023-07-24T16:08:54.131Z,99823.31
2023-07-24T16:11:20.655Z,99831.66
2023-07-24T16:13:47.379Z,99833.84
2023-07-24T16:16:15.685Z,99827.50
2023-07-24T16:18:42.798Z,99832.06
2023-07-24T16:21:09.361Z,99835.00
2023-07-24T16:23:36.249Z,99851.53
2023-07-24T16:26:05.893Z,99861.88
2023-07-24T16:28:32.504Z,99883.81
2023-07-24T16:30:59.871Z,99898.91
2023-07-24T16:33:26.607Z,99904.44
2023-07-24T16:35:53.403Z,99890.31
2023-07-24T16:38:20.126Z,99889.31
2023-07-24T16:40:46.786Z,99898.66
2023-07-24T16:43:13.339Z,99909.22
2023-07-24T16:45:39.932Z,99901.06
2023-07-24T16:48:06.990Z,99896.72
2023-07-24T16:50:36.256Z,99905.88
2023-07-24T16:53:03.859Z,99894.16
2023-07-24T16:55:30.750Z,99910.16
2023-07-24T16:57:57.731Z,99900.19
2023-07-24T17:00:24.365Z,99914.63
2023-07-24T17:02:51.143Z,99911.38
2023-07-24T17:05:17.882Z,99921.41
2023-07-24T17:07:44.470Z,99918.25
2023-07-24T17:10:11.082Z,99912.31
2023-07-24T17:12:38.103Z,99931.69
2023-07-24T17:15:05.018Z,99923.06
2023-07-24T17:17:31.643Z,99928.63
2023-07-24T17:19:58.328Z,99935.94
2023-07-24T17:22:24.940Z,99956.88
2023-07-24T17:24:52.157Z,99964.09
2023-07-24T17:27:19.015Z,99967.06
2023-07-24T17:29:46.670Z,99950.94
2023-07-24T17:32:14.276Z,99951.78
2023-07-24T17:34:42.335Z,99948.22
2023-07-24T17:37:14.221Z,99948.66
2023-07-24T17:39:44.913Z,99939.59
2023-07-24T17:42:11.496Z,99941.91
2023-07-24T17:44:38.332Z,99951.31
2023-07-24T17:47:04.884Z,99959.84
2023-07-24T17:49:31.431Z,99960.28
2023-07-24T17:51:57.964Z,99959.09
2023-07-24T17:54:24.871Z,99966.94
2023-07-24T17:56:51.577Z,99966.31
2023-07-24T17:59:18.239Z,99970.75
2023-07-24T18:01:45.251Z,99969.78
2023-07-24T18:04:11.782Z,99970.50
2023-07-24T18:06:38.334Z,99972.81
2023-07-24T18:09:05.005Z,99964.81
2023-07-24T18:11:31.792Z,99963.59
2023-07-24T18:13:58.525Z,99966.72
2023-07-24T18:16:25.127Z,99960.78
2023-07-24T18:18:52.057Z,99960.78
2023-07-24T18:21:24.437Z,99960.97
2023-07-24T18:23:52.549Z,99965.09
2023-07-24T18:26:19.119Z,99967.66
2023-07-24T18:28:45.737Z,99954.63
2023-07-24T18:31:12.323Z,99966.63
2023-07-24T18:33:39.170Z,99957.81
2023-07-24T18:36:08.680Z,99955.63
2023-07-24T18:38:36.867Z,99962.00
2023-07-24T18:41:03.546Z,99971.00
2023-07-24T18:43:30.107Z,99983.69
2023-07-24T18:45:58.327Z,99989.75
2023-07-24T18:48:28.192Z,99985.56
2023-07-24T18:50:54.747Z,99980.44
2023-07-24T18:53:21.612Z,99990.34
2023-07-24T18:55:48.359Z,99992.59
2023-07-24T18:58:14.933Z,99988.59
2023-07-24T19:00:41.483Z,99998.59
2023-07-24T19:03:08.166Z,99994.94
2023-07-24T19:05:35.237Z,99994.47
2023-07-24T19:08:01.956Z,99997.31
2023-07-24T19:10:28.544Z,100006.69
2023-07-24T19:12:55.205Z,100003.94
2023-07-24T19:15:21.895Z,100004.47
2023-07-24T19:17:48.957Z,100012.09
2023-07-24T19:20:16.190Z,100008.91
2023-07-24T19:22:42.826Z,100016.28
2023-07-24T19:25:09.689Z,100024.63
2023-07-24T19:27:36.446Z,100030.19
2023-07-24T19:30:06.973Z,100025.88
2023-07-24T19:32:35.331Z,100022.22
2023-07-24T19:35:04.031Z,100024.31
2023-07-24T19:37:30.642Z,100030.06
2023-07-24T19:39:57.324Z,100028.44
2023-07-24T19:42:23.946Z,100035.72
2023-07-24T19:44:50.510Z,100044.97
2023-07-24T19:47:17.139Z,100044.91
2023-07-24T19:49:44.196Z,100051.00
2023-07-24T19:52:10.794Z,100047.19
2023-07-24T19:54:37.444Z,100049.66
2023-07-24T19:57:04.292Z,100060.94
2023-07-24T19:59:30.892Z,100066.91
2023-07-24T20:01:57.659Z,100061.44
2023-07-24T20:04:24.485Z,100081.88
2023-07-24T20:06:51.088Z,100065.38
2023-07-24T20:09:17.755Z,100089.91
2023-07-24T20:11:46.704Z,100087.78
2023-07-24T20:14:14.631Z,100085.78
2023-07-24T20:16:41.183Z,100082.53
2023-07-24T20:19:07.832Z,100086.31
2023-07-24T20:21:34.393Z,100081.19
2023-07-24T20:24:13.944Z,100084.94
2023-07-24T20:26:40.892Z,100082.47
2023-07-24T20:29:07.574Z,100088.38
2023-07-24T20:31:34.737Z,100088.69
2023-07-24T20:34:01.649Z,100102.72
2023-07-24T20:36:28.281Z,100099.59
2023-07-24T20:38:54.884Z,100094.50
2023-07-24T20:41:21.526Z,100097.28
2023-07-24T20:43:48.065Z,100097.53
2023-07-24T20:46:16.522Z,100092.31
2023-07-24T20:48:43.970Z,100104.78
2023-07-24T20:51:24.487Z,100116.63
2023-07-24T20:53:52.393Z,100108.56
2023-07-24T20:56:23.741Z,100107.56
2023-07-24T20:58:50.368Z,100117.28
2023-07-24T21:01:17.005Z,100107.56
2023-07-24T21:03:43.645Z,100111.34
2023-07-24T21:06:10.274Z,100110.72
2023-07-24T21:08:36.913Z,100120.44
2023-07-24T21:11:03.803Z,100121.91
2023-07-24T21:13:30.546Z,100124.19
2023-07-24T21:15:57.333Z,100128.94
2023-07-24T21:18:24.288Z,100129.78
2023-07-24T21:20:50.911Z,100122.03
2023-07-24T21:23:17.445Z,100130.78
2023-07-24T21:25:55.931Z,100128.78
2023-07-24T21:28:23.209Z,100137.97
2023-07-24T21:30:50.003Z,100109.38
2023-07-24T21:33:17.428Z,100123.81
2023-07-24T21:35:44.109Z,100128.25
2023-07-24T21:38:11.647Z,100125.59
2023-07-24T21:40:39.769Z,100123.13
2023-07-24T21:43:06.322Z,100125.59
2023-07-24T21:45:32.898Z,100125.97
2023-07-24T21:48:01.828Z,100125.31
2023-07-24T21:50:28.533Z,100125.13
2023-07-24T21:52:55.090Z,100136.31
2023-07-24T21:55:21.867Z,100126.19
2023-07-24T21:57:48.673Z,100129.94
2023-07-24T22:00:15.617Z,100136.22
2023-07-24T22:02:42.272Z,100137.88
2023-07-24T22:05:09.044Z,100142.16
2023-07-24T22:07:35.588Z,100137.72
2023-07-24T22:10:02.212Z,100143.16
2023-07-24T22:12:28.962Z,100150.28
2023-07-24T22:14:55.579Z,100146.00
2023-07-24T22:17:28.850Z,100123.63
2023-07-24T22:19:58.318Z,100135.16
2023-07-24T22:22:24.871Z,100147.31
2023-07-24T22:24:51.568Z,100143.53
2023-07-24T22:27:18.307Z,100152.44
2023-07-24T22:29:45.246Z,100148.16
2023-07-24T22:32:11.901Z,100135.81
2023-07-24T22:34:38.460Z,100150.13
2023-07-24T22:37:07.031Z,100149.94
2023-07-24T22:39:34.464Z,100145.19
2023-07-24T22:42:02.230Z,100152.09
2023-07-24T22:44:29.417Z,100154.75
2023-07-24T22:46:56.164Z,100145.19
2023-07-24T22:49:23.344Z,100147.19
2023-07-24T22:51:50.076Z,100138.97
2023-07-24T22:54:16.625Z,100141.13
2023-07-24T22:56:43.541Z,100141.47
2023-07-24T22:59:22.352Z,100147.91
2023-07-24T23:01:50.735Z,100145.44
2023-07-24T23:04:17.565Z,100142.16
2023-07-24T23:06:44.763Z,100148.41
2023-07-24T23:09:11.503Z,100109.28
2023-07-24T23:11:38.037Z,100144.66
2023-07-24T23:14:04.647Z,100145.66
2023-07-24T23:16:31.261Z,100149.78
2023-07-24T23:18:57.829Z,100146.81
2023-07-24T23:21:24.463Z,100128.88
2023-07-24T23:23:51.008Z,100145.16
2023-07-24T23:26:18.010Z,100146.00
2023-07-24T23:28:44.810Z,100114.06
2023-07-24T23:31:11.371Z,100135.78
2023-07-24T23:33:38.806Z,100149.44
2023-07-24T23:36:08.485Z,100150.44
2023-07-24T23:38:36.609Z,100157.69
2023-07-24T23:41:05.768Z,100157.69
2023-07-24T23:43:33.120Z,100147.66
2023-07-24T23:46:00.015Z,100159.63
2023-07-24T23:48:26.745Z,100160.34
2023-07-24T23:50:53.406Z,100166.41
2023-07-24T23:53:20.493Z,100144.19
2023-07-24T23:55:47.159Z,100163.78
2023-07-24T23:58:13.731Z,100161.28
